createdAt,value
2019-04-03T00:00:50.036Z,10.77
2019-04-03T00:02:50.311Z,10.69
2019-04-03T00:04:49.733Z,10.59
2019-04-03T00:06:50.081Z,10.52
2019-04-03T00:08:50.201Z,10.45
2019-04-03T00:10:50.310Z,10.47
2019-04-03T00:12:50.618Z,10.50
2019-04-03T00:14:50.557Z,10.51
2019-04-03T00:16:49.879Z,10.51
2019-04-03T00:18:49.944Z,10.49
2019-04-03T00:20:50.267Z,10.44
2019-04-03T00:22:52.652Z,10.41
2019-04-03T00:24:53.089Z,10.40
2019-04-03T00:26:53.158Z,10.37
2019-04-03T00:28:52.823Z,10.31
2019-04-03T00:30:52.807Z,10.29
2019-04-03T00:32:54.169Z,10.24
2019-04-03T00:34:49.822Z,10.24
2019-04-03T00:36:50.098Z,10.24
2019-04-03T00:38:49.892Z,10.23
2019-04-03T00:40:50.029Z,10.20
2019-04-03T00:42:50.049Z,10.15
2019-04-03T00:44:50.129Z,10.12
2019-04-03T00:46:50.561Z,10.06
2019-04-03T00:48:50.556Z,10.01
2019-04-03T00:50:49.814Z,9.95
2019-04-03T00:52:49.995Z,9.93
2019-04-03T00:54:50.019Z,9.89
2019-04-03T00:56:50.411Z,9.78
2019-04-03T00:58:50.437Z,9.73
2019-04-03T01:00:50.604Z,9.64
2019-04-03T01:02:50.683Z,9.59
2019-04-03T01:04:50.144Z,9.54
2019-04-03T01:06:50.475Z,9.48
2019-04-03T01:08:50.537Z,9.41
2019-04-03T01:10:50.707Z,9.37
2019-04-03T01:12:49.832Z,9.36
2019-04-03T01:14:49.947Z,9.32
2019-04-03T01:16:50.386Z,9.31
2019-04-03T01:18:50.701Z,9.33
2019-04-03T01:20:49.891Z,9.32
2019-04-03T01:22:50.136Z,9.33
2019-04-03T01:24:50.343Z,9.35
2019-04-03T01:26:50.610Z,9.36
2019-04-03T01:28:49.752Z,9.39
2019-04-03T01:30:49.926Z,9.42
2019-04-03T01:32:50.163Z,9.49
2019-04-03T01:34:50.505Z,9.50
2019-04-03T01:36:50.661Z,9.50
2019-04-03T01:38:50.645Z,9.46
2019-04-03T01:40:51.522Z,9.42
2019-04-03T01:42:53.747Z,9.40
2019-04-03T01:44:49.960Z,9.37
2019-04-03T01:46:50.250Z,9.31
2019-04-03T01:48:50.349Z,9.22
2019-04-03T01:50:50.350Z,9.14
2019-04-03T01:52:50.337Z,9.05
2019-04-03T01:54:50.457Z,8.99
2019-04-03T01:56:50.557Z,8.90
2019-04-03T01:58:50.563Z,8.86
2019-04-03T02:00:50.644Z,8.73
2019-04-03T02:02:50.676Z,8.69
2019-04-03T02:04:50.170Z,8.61
2019-04-03T02:06:50.345Z,8.55
2019-04-03T02:08:49.978Z,8.52
2019-04-03T02:10:50.257Z,8.48
2019-04-03T02:12:51.850Z,8.47
2019-04-03T02:14:52.061Z,8.46
2019-04-03T02:16:52.960Z,8.45
2019-04-03T02:18:49.993Z,8.48
2019-04-03T02:20:50.108Z,8.50
2019-04-03T02:22:50.108Z,8.49
2019-04-03T02:24:50.173Z,8.48
2019-04-03T02:26:50.519Z,8.48
2019-04-03T02:28:50.489Z,8.46
2019-04-03T02:30:50.571Z,8.45
2019-04-03T02:32:50.710Z,8.45
2019-04-03T02:34:50.134Z,8.46
2019-04-03T02:36:50.376Z,8.55
2019-04-03T02:38:55.006Z,8.57
2019-04-03T02:40:50.024Z,8.55
2019-04-03T02:42:50.387Z,8.54
2019-04-03T02:44:52.380Z,8.58
2019-04-03T02:46:50.595Z,8.62
2019-04-03T02:48:50.654Z,8.64
2019-04-03T02:50:50.906Z,8.65
2019-04-03T02:52:50.014Z,8.69
2019-04-03T02:54:50.196Z,8.72
2019-04-03T02:56:50.483Z,8.76
2019-04-03T02:58:55.788Z,8.78
2019-04-03T03:00:50.298Z,8.80
2019-04-03T03:02:50.510Z,8.80
2019-04-03T03:04:55.830Z,8.82
2019-04-03T03:06:50.406Z,8.84
2019-04-03T03:08:50.449Z,8.84
2019-04-03T03:10:53.759Z,8.82
2019-04-03T03:12:50.054Z,8.81
2019-04-03T03:14:50.394Z,8.79
2019-04-03T03:16:51.451Z,8.79
2019-04-03T03:18:50.466Z,8.78
2019-04-03T03:20:50.896Z,8.79
2019-04-03T03:22:51.953Z,8.78
2019-04-03T03:24:50.077Z,8.74
2019-04-03T03:26:50.451Z,8.71
2019-04-03T03:28:50.595Z,8.72
2019-04-03T03:31:07.809Z,8.70
2019-04-03T03:32:50.785Z,8.67
2019-04-03T03:35:20.397Z,8.64
2019-04-03T03:37:01.947Z,8.62
2019-04-03T03:38:50.421Z,8.61
2019-04-03T03:40:50.526Z,8.58
2019-04-03T03:42:50.577Z,8.56
2019-04-03T03:44:50.914Z,8.51
2019-04-03T03:46:50.056Z,8.47
2019-04-03T03:48:50.841Z,8.44
2019-04-03T03:50:50.240Z,8.39
2019-04-03T03:52:50.634Z,8.36
2019-04-03T03:54:52.782Z,8.35
2019-04-03T03:56:50.701Z,8.36
2019-04-03T03:58:50.053Z,8.40
2019-04-03T04:01:00.596Z,8.41
2019-04-03T04:02:50.186Z,8.38
2019-04-03T04:04:50.685Z,8.36
2019-04-03T04:06:49.985Z,8.34
2019-04-03T04:08:49.991Z,8.30
2019-04-03T04:10:50.335Z,8.31
2019-04-03T04:12:50.402Z,8.33
2019-04-03T04:14:50.095Z,8.33
2019-04-03T04:16:50.393Z,8.28
2019-04-03T04:18:50.556Z,8.26
2019-04-03T04:20:50.580Z,8.22
2019-04-03T04:22:51.846Z,8.21
2019-04-03T04:24:49.848Z,8.17
2019-04-03T04:26:50.907Z,8.16
2019-04-03T04:28:50.074Z,8.13
2019-04-03T04:30:50.463Z,8.12
2019-04-03T04:32:50.490Z,8.09
2019-04-03T04:34:50.893Z,8.02
2019-04-03T04:36:50.527Z,7.99
2019-04-03T04:38:50.748Z,7.98
2019-04-03T04:40:49.821Z,7.97
2019-04-03T04:42:49.789Z,7.96
2019-04-03T04:44:49.868Z,7.93
2019-04-03T04:46:50.374Z,7.91
2019-04-03T04:48:52.601Z,7.92
2019-04-03T04:50:50.629Z,7.91
2019-04-03T04:52:49.727Z,7.89
2019-04-03T04:54:49.775Z,7.90
2019-04-03T04:56:50.016Z,7.92
2019-04-03T04:58:50.040Z,7.94
2019-04-03T05:00:54.118Z,7.96
2019-04-03T05:02:51.710Z,8.00
2019-04-03T05:04:50.413Z,8.06
2019-04-03T05:06:50.849Z,8.08
2019-04-03T05:08:49.892Z,8.13
2019-04-03T05:10:49.817Z,8.19
2019-04-03T05:12:49.899Z,8.26
2019-04-03T05:14:50.056Z,8.31
2019-04-03T05:16:50.441Z,8.39
2019-04-03T05:18:50.633Z,8.42
2019-04-03T05:20:51.863Z,8.48
2019-04-03T05:22:49.874Z,8.52
2019-04-03T05:24:50.008Z,8.57
2019-04-03T05:26:50.153Z,8.60
2019-04-03T05:28:57.993Z,8.63
2019-04-03T05:30:50.039Z,8.66
2019-04-03T05:32:50.154Z,8.74
2019-04-03T05:34:50.527Z,8.77
2019-04-03T05:36:50.142Z,8.81
2019-04-03T05:38:54.252Z,8.85
2019-04-03T05:40:50.476Z,8.89
2019-04-03T05:42:50.823Z,8.96
2019-04-03T05:44:50.035Z,8.97
2019-04-03T05:46:50.168Z,9.04
2019-04-03T05:48:50.342Z,9.04
2019-04-03T05:50:50.415Z,9.20
2019-04-03T05:52:50.542Z,9.24
2019-04-03T05:54:50.518Z,9.30
2019-04-03T05:56:52.359Z,9.34
2019-04-03T05:59:03.129Z,9.42
2019-04-03T06:01:10.365Z,9.46
2019-04-03T06:02:58.121Z,9.58
2019-04-03T06:04:50.698Z,9.58
2019-04-03T06:06:49.988Z,9.69
2019-04-03T06:08:52.240Z,9.73
2019-04-03T06:10:50.343Z,9.74
2019-04-03T06:12:50.644Z,9.71
2019-04-03T06:14:51.234Z,9.64
2019-04-03T06:16:50.696Z,9.64
2019-04-03T06:18:50.851Z,9.71
2019-04-03T06:20:49.962Z,9.81
2019-04-03T06:22:51.274Z,9.87
2019-04-03T06:24:50.352Z,9.92
2019-04-03T06:26:50.745Z,10.02
2019-04-03T06:28:49.860Z,10.04
2019-04-03T06:30:49.951Z,10.08
2019-04-03T06:32:50.376Z,10.16
2019-04-03T06:34:50.009Z,10.20
2019-04-03T06:36:51.780Z,10.23
2019-04-03T06:38:50.238Z,10.28
2019-04-03T06:40:50.299Z,10.34
2019-04-03T06:42:50.404Z,10.39
2019-04-03T06:44:54.353Z,10.54
2019-04-03T06:46:49.910Z,10.63
2019-04-03T06:48:49.928Z,10.74
2019-04-03T06:50:49.898Z,10.80
2019-04-03T06:52:54.170Z,10.90
2019-04-03T06:54:50.459Z,10.91
2019-04-03T06:56:53.287Z,10.98
2019-04-03T06:58:50.312Z,11.07
2019-04-03T07:00:50.603Z,11.18
2019-04-03T07:02:50.208Z,11.28
2019-04-03T07:04:50.661Z,11.41
2019-04-03T07:06:50.898Z,11.45
2019-04-03T07:08:49.993Z,11.57
2019-04-03T07:10:55.892Z,11.66
2019-04-03T07:12:49.974Z,11.74
2019-04-03T07:14:49.940Z,11.80
2019-04-03T07:16:50.103Z,11.82
2019-04-03T07:18:50.384Z,12.01
2019-04-03T07:20:52.858Z,12.10
2019-04-03T07:22:49.852Z,12.26
2019-04-03T07:24:49.964Z,12.32
2019-04-03T07:26:50.793Z,12.48
2019-04-03T07:28:49.883Z,12.52
2019-04-03T07:30:54.560Z,12.65
2019-04-03T07:32:50.616Z,12.68
2019-04-03T07:34:50.362Z,12.79
2019-04-03T07:36:50.476Z,12.81
2019-04-03T07:38:50.345Z,12.85
2019-04-03T07:40:52.941Z,12.85
2019-04-03T07:42:50.265Z,12.88
2019-04-03T07:44:50.329Z,13.08
2019-04-03T07:46:50.636Z,13.43
2019-04-03T07:48:49.901Z,13.68
2019-04-03T07:50:50.096Z,13.84
2019-04-03T07:52:50.276Z,14.03
2019-04-03T07:54:57.887Z,14.2
2019-04-03T07:56:50.324Z,14.2
2019-04-03T07:58:50.496Z,14.3
2019-04-03T08:00:50.774Z,14.4
2019-04-03T08:02:50.585Z,14.5
2019-04-03T08:04:50.449Z,14.6
2019-04-03T08:06:50.687Z,14.6
2019-04-03T08:09:10.665Z,14.43
2019-04-03T08:10:50.862Z,14.51
2019-04-03T08:12:50.100Z,14.27
2019-04-03T08:14:50.537Z,14.17
2019-04-03T08:16:51.145Z,14.01
2019-04-03T08:18:52.716Z,13.92
2019-04-03T08:20:50.218Z,14.00
2019-04-03T08:22:50.508Z,14.08
2019-04-03T08:24:54.434Z,14.24
2019-04-03T08:26:52.924Z,14.24
2019-04-03T08:28:50.269Z,14.29
2019-04-03T08:30:50.367Z,14.35
2019-04-03T08:32:50.763Z,14.60
2019-04-03T08:34:50.193Z,14.64
2019-04-03T08:36:50.457Z,14.83
2019-04-03T08:38:50.194Z,14.92
2019-04-03T08:40:53.907Z,14.68
2019-04-03T08:42:50.277Z,14.68
2019-04-03T08:44:50.350Z,14.60
2019-04-03T08:46:50.528Z,14.67
2019-04-03T08:48:50.015Z,14.73
2019-04-03T08:50:50.282Z,14.79
2019-04-03T08:52:50.540Z,14.90
2019-04-03T08:54:50.769Z,14.81
2019-04-03T08:56:50.384Z,14.82
2019-04-03T08:58:50.868Z,14.75
2019-04-03T09:00:51.131Z,14.91
2019-04-03T09:02:50.695Z,15.2
2019-04-03T09:04:50.734Z,15.27
2019-04-03T09:06:54.048Z,15.3
2019-04-03T09:08:49.728Z,15.18
2019-04-03T09:10:49.794Z,15.20
2019-04-03T09:12:49.775Z,15.18
2019-04-03T09:14:50.254Z,15.19
2019-04-03T09:16:50.798Z,15.11
2019-04-03T09:18:50.391Z,15.00
2019-04-03T09:20:50.747Z,15.17
2019-04-03T09:22:55.197Z,15.4
2019-04-03T09:24:50.433Z,15.38
2019-04-03T09:26:50.733Z,15.41
2019-04-03T09:28:49.863Z,15.48
2019-04-03T09:30:50.217Z,15.50
2019-04-03T09:32:54.619Z,15.7
2019-04-03T09:34:50.365Z,15.7
2019-04-03T09:36:50.214Z,15.7
2019-04-03T09:38:50.929Z,15.7
2019-04-03T09:40:50.477Z,15.8
2019-04-03T09:42:52.408Z,15.8
2019-04-03T09:44:50.965Z,15.9
2019-04-03T09:46:50.320Z,16.0
2019-04-03T09:48:50.517Z,16.0
2019-04-03T09:50:50.597Z,16.1
2019-04-03T09:52:55.973Z,16.1
2019-04-03T09:54:50.272Z,16.2
2019-04-03T09:57:06.476Z,16.2
2019-04-03T09:58:50.020Z,16.2
2019-04-03T10:00:50.635Z,16.2
2019-04-03T10:02:52.380Z,16.2
2019-04-03T10:04:50.330Z,16.2
2019-04-03T10:06:50.039Z,16.2
2019-04-03T10:08:50.625Z,16.2
2019-04-03T10:10:50.731Z,16.2
2019-04-03T10:12:54.727Z,16.2
2019-04-03T10:14:49.961Z,16.2
2019-04-03T10:16:50.249Z,16.3
2019-04-03T10:18:50.677Z,16.3
2019-04-03T10:20:50.167Z,16.2
2019-04-03T10:22:50.727Z,16.2
2019-04-03T10:24:50.255Z,16.2
2019-04-03T10:26:50.551Z,16.2
2019-04-03T10:28:50.889Z,16.1
2019-04-03T10:30:54.814Z,16.2
2019-04-03T10:32:50.805Z,16.1
2019-04-03T10:34:50.604Z,16.1
2019-04-03T10:36:49.903Z,16.2
2019-04-03T10:38:50.539Z,16.2
2019-04-03T10:40:51.215Z,16.2
2019-04-03T10:42:50.893Z,16.2
2019-04-03T10:44:50.510Z,16.2
2019-04-03T10:46:51.504Z,16.2
2019-04-03T10:48:50.883Z,16.2
2019-04-03T10:50:50.554Z,16.2
2019-04-03T10:52:51.061Z,16.2
2019-04-03T10:54:50.687Z,16.3
2019-04-03T10:56:50.292Z,16.3
2019-04-03T10:58:51.937Z,16.4
2019-04-03T11:00:50.657Z,16.4
2019-04-03T11:02:50.247Z,16.5
2019-04-03T11:04:51.054Z,16.5
2019-04-03T11:06:50.648Z,16.5
2019-04-03T11:08:51.193Z,16.7
2019-04-03T11:10:50.905Z,16.7
2019-04-03T11:12:50.151Z,16.7
2019-04-03T11:14:50.785Z,16.7
2019-04-03T11:16:50.401Z,16.8
2019-04-03T11:19:08.136Z,16.8
2019-04-03T11:20:50.358Z,16.8
2019-04-03T11:23:09.063Z,16.8
2019-04-03T11:24:50.324Z,16.8
2019-04-03T11:26:53.508Z,16.8
2019-04-03T11:28:51.377Z,16.8
2019-04-03T11:31:00.273Z,16.8
2019-04-03T11:32:50.701Z,16.8
2019-04-03T11:34:54.285Z,16.8
2019-04-03T11:36:51.949Z,16.7
2019-04-03T11:38:50.633Z,16.7
2019-04-03T11:40:51.641Z,16.7
2019-04-03T11:42:50.176Z,16.7
2019-04-03T11:44:50.694Z,16.6
2019-04-03T11:46:50.443Z,16.7
2019-04-03T11:48:51.038Z,16.7
2019-04-03T11:50:50.401Z,16.8
2019-04-03T11:52:52.651Z,16.9
2019-04-03T11:54:53.831Z,16.9
2019-04-03T11:56:50.511Z,17.0
2019-04-03T11:58:54.346Z,17.0
2019-04-03T12:00:50.977Z,17.0
2019-04-03T12:02:50.517Z,17.0
2019-04-03T12:04:50.509Z,17.1
2019-04-03T12:06:54.036Z,17.1
2019-04-03T12:08:50.771Z,17.2
2019-04-03T12:10:50.511Z,17.3
2019-04-03T12:12:50.873Z,17.4
2019-04-03T12:14:50.688Z,17.4
2019-04-03T12:16:50.789Z,17.5
2019-04-03T12:18:50.058Z,17.5
2019-04-03T12:20:50.945Z,17.5
2019-04-03T12:22:50.171Z,17.5
2019-04-03T12:24:51.061Z,17.6
2019-04-03T12:26:56.700Z,17.6
2019-04-03T12:28:51.737Z,17.6
2019-04-03T12:30:50.170Z,17.6
2019-04-03T12:32:50.815Z,17.6
2019-04-03T12:34:51.296Z,17.7
2019-04-03T12:36:50.752Z,17.7
2019-04-03T12:38:50.330Z,17.7
2019-04-03T12:40:50.702Z,17.8
2019-04-03T12:42:50.255Z,17.8
2019-04-03T12:44:55.710Z,17.8
2019-04-03T12:46:50.477Z,17.8
2019-04-03T12:48:52.194Z,17.8
2019-04-03T12:50:50.615Z,17.8
2019-04-03T12:52:50.124Z,17.8
2019-04-03T12:54:54.986Z,17.8
2019-04-03T12:56:50.564Z,17.8
2019-04-03T12:58:50.135Z,17.8
2019-04-03T13:00:51.106Z,17.8
2019-04-03T13:02:53.770Z,17.9
2019-04-03T13:04:50.877Z,17.9
2019-04-03T13:06:50.462Z,18.0
2019-04-03T13:08:51.675Z,18.0
2019-04-03T13:10:50.212Z,18.0
2019-04-03T13:12:50.764Z,17.9
2019-04-03T13:14:50.968Z,17.9
2019-04-03T13:16:50.620Z,17.9
2019-04-03T13:18:49.960Z,18.0
2019-04-03T13:20:50.373Z,18.0
2019-04-03T13:22:51.103Z,18.1
2019-04-03T13:24:50.817Z,18.1
2019-04-03T13:26:50.645Z,18.2
2019-04-03T13:28:51.072Z,18.2
2019-04-03T13:30:50.502Z,18.2
2019-04-03T13:33:08.129Z,18.2
2019-04-03T13:34:50.486Z,18.2
2019-04-03T13:36:53.178Z,18.2
2019-04-03T13:38:52.576Z,18.3
2019-04-03T13:40:51.325Z,18.4
2019-04-03T13:42:50.908Z,18.4
2019-04-03T13:44:50.163Z,18.4
2019-04-03T13:46:54.026Z,18.3
2019-04-03T13:48:50.814Z,18.4
2019-04-03T13:50:55.456Z,18.4
2019-04-03T13:52:51.719Z,18.5
2019-04-03T13:54:50.680Z,18.6
2019-04-03T13:56:54.663Z,18.6
2019-04-03T13:58:55.192Z,18.6
2019-04-03T14:01:10.121Z,18.8
2019-04-03T14:02:50.507Z,18.8
2019-04-03T14:04:50.530Z,18.8
2019-04-03T14:06:49.951Z,18.8
2019-04-03T14:08:50.400Z,18.8
2019-04-03T14:10:51.251Z,18.8
2019-04-03T14:12:50.377Z,18.8
2019-04-03T14:14:51.142Z,18.7
2019-04-03T14:16:50.591Z,18.7
2019-04-03T14:18:51.698Z,18.6
2019-04-03T14:20:56.181Z,18.6
2019-04-03T14:22:50.225Z,18.6
2019-04-03T14:24:53.217Z,18.7
2019-04-03T14:26:51.346Z,18.6
2019-04-03T14:28:50.825Z,18.7
2019-04-03T14:30:50.592Z,18.7
2019-04-03T14:32:55.627Z,18.7
2019-04-03T14:34:50.606Z,18.7
2019-04-03T14:36:51.873Z,18.9
2019-04-03T14:38:50.533Z,18.9
2019-04-03T14:40:51.001Z,18.9
2019-04-03T14:42:50.188Z,19.0
2019-04-03T14:44:50.341Z,19.0
2019-04-03T14:46:52.669Z,19.1
2019-04-03T14:48:50.945Z,19.1
2019-04-03T14:50:50.197Z,19.2
2019-04-03T14:52:50.526Z,19.2
2019-04-03T14:54:50.972Z,19.2
2019-04-03T14:56:50.593Z,19.2
2019-04-03T14:58:50.922Z,19.2
2019-04-03T15:00:51.074Z,19.3
2019-04-03T15:02:50.327Z,19.3
2019-04-03T15:04:50.291Z,19.4
2019-04-03T15:07:10.970Z,19.4
2019-04-03T15:08:50.350Z,19.4
2019-04-03T15:10:51.174Z,19.5
2019-04-03T15:12:50.394Z,19.5
2019-04-03T15:14:56.108Z,19.6
2019-04-03T15:16:50.920Z,19.5
2019-04-03T15:18:50.711Z,19.5
2019-04-03T15:20:51.803Z,19.6
2019-04-03T15:22:50.080Z,19.7
2019-04-03T15:24:50.709Z,19.7
2019-04-03T15:26:55.320Z,19.7
2019-04-03T15:28:50.990Z,19.7
2019-04-03T15:30:50.821Z,19.8
2019-04-03T15:32:53.154Z,19.8
2019-04-03T15:34:52.053Z,19.8
2019-04-03T15:36:52.100Z,19.8
2019-04-03T15:38:50.361Z,19.8
2019-04-03T15:40:50.449Z,19.8
2019-04-03T15:42:50.823Z,19.8
2019-04-03T15:44:54.145Z,19.8
2019-04-03T15:46:51.018Z,19.8
2019-04-03T15:48:55.601Z,19.8
2019-04-03T15:50:50.428Z,19.8
2019-04-03T15:52:51.617Z,19.8
2019-04-03T15:54:50.306Z,19.8
2019-04-03T15:56:51.024Z,19.8
2019-04-03T15:58:52.435Z,19.8
2019-04-03T16:00:50.750Z,19.8
2019-04-03T16:02:50.134Z,19.8
2019-04-03T16:04:50.801Z,19.8
2019-04-03T16:06:50.534Z,19.7
2019-04-03T16:08:50.520Z,19.7
2019-04-03T16:10:51.110Z,19.7
2019-04-03T16:12:50.044Z,19.8
2019-04-03T16:14:52.097Z,19.8
2019-04-03T16:16:50.446Z,19.8
2019-04-03T16:18:50.895Z,19.7
2019-04-03T16:20:51.001Z,19.7
2019-04-03T16:22:50.499Z,19.7
2019-04-03T16:24:54.665Z,19.7
2019-04-03T16:26:49.764Z,19.7
2019-04-03T16:28:50.141Z,19.6
2019-04-03T16:30:54.799Z,19.6
2019-04-03T16:32:50.113Z,19.6
2019-04-03T16:34:51.162Z,19.6
2019-04-03T16:36:51.221Z,19.6
2019-04-03T16:38:50.755Z,19.6
2019-04-03T16:40:50.297Z,19.6
2019-04-03T16:42:54.446Z,19.6
2019-04-03T16:44:50.822Z,19.6
2019-04-03T16:46:50.114Z,19.5
2019-04-03T16:48:51.919Z,19.5
2019-04-03T16:50:50.291Z,19.5
2019-04-03T16:52:50.803Z,19.5
2019-04-03T16:54:49.883Z,19.4
2019-04-03T16:56:50.762Z,19.4
2019-04-03T16:58:50.313Z,19.4
2019-04-03T17:00:50.817Z,19.4
2019-04-03T17:02:50.424Z,19.3
2019-04-03T17:04:50.465Z,19.29
2019-04-03T17:06:50.857Z,19.2
2019-04-03T17:08:50.127Z,18.99
2019-04-03T17:10:50.235Z,18.81
2019-04-03T17:12:50.436Z,18.70
2019-04-03T17:14:50.855Z,18.58
2019-04-03T17:16:50.788Z,18.49
2019-04-03T17:18:49.875Z,18.36
2019-04-03T17:20:53.115Z,18.26
2019-04-03T17:22:50.497Z,18.17
2019-04-03T17:24:56.688Z,18.09
2019-04-03T17:27:00.495Z,17.97
2019-04-03T17:29:06.798Z,17.90
2019-04-03T17:30:52.605Z,17.79
2019-04-03T17:32:49.709Z,17.72
2019-04-03T17:34:50.230Z,17.64
2019-04-03T17:36:54.788Z,17.64
2019-04-03T17:38:50.378Z,17.54
2019-04-03T17:40:50.398Z,17.48
2019-04-03T17:42:50.407Z,17.45
2019-04-03T17:44:50.530Z,17.42
2019-04-03T17:46:49.813Z,17.37
2019-04-03T17:48:49.914Z,17.33
2019-04-03T17:50:49.897Z,17.30
2019-04-03T17:52:49.996Z,17.24
2019-04-03T17:54:50.102Z,17.20
2019-04-03T17:56:50.306Z,17.13
2019-04-03T17:58:50.397Z,17.08
2019-04-03T18:00:52.880Z,17.02
2019-04-03T18:02:49.895Z,16.97
2019-04-03T18:04:51.524Z,16.91
2019-04-03T18:06:50.688Z,16.86
2019-04-03T18:08:49.814Z,16.82
2019-04-03T18:10:49.968Z,16.77
2019-04-03T18:12:53.055Z,16.72
2019-04-03T18:14:50.093Z,16.69
2019-04-03T18:16:50.219Z,16.68
2019-04-03T18:18:50.513Z,16.66
2019-04-03T18:20:50.543Z,16.60
2019-04-03T18:22:51.452Z,16.55
2019-04-03T18:24:54.405Z,16.59
2019-04-03T18:26:49.745Z,16.60
2019-04-03T18:28:49.811Z,16.63
2019-04-03T18:30:49.919Z,16.75
2019-04-03T18:32:50.024Z,16.78
2019-04-03T18:34:55.820Z,15.63
2019-04-03T18:36:50.158Z,15.10
2019-04-03T18:38:50.263Z,13.77
2019-04-03T18:40:50.283Z,13.37
2019-04-03T18:42:50.658Z,12.69
2019-04-03T18:44:49.774Z,12.48
2019-04-03T18:46:50.590Z,11.95
2019-04-03T18:49:01.913Z,11.56
2019-04-03T18:50:50.605Z,11.31
2019-04-03T18:52:50.638Z,10.98
2019-04-03T18:54:49.686Z,10.85
2019-04-03T18:56:49.922Z,10.79
2019-04-03T18:58:49.972Z,10.65
2019-04-03T19:00:50.101Z,10.29
2019-04-03T19:02:50.225Z,10.00
2019-04-03T19:05:02.863Z,9.44
2019-04-03T19:06:49.935Z,9.16
2019-04-03T19:08:50.832Z,9.04
2019-04-03T19:11:09.642Z,8.94
2019-04-03T19:12:50.083Z,8.94
2019-04-03T19:14:50.064Z,8.71
2019-04-03T19:16:54.974Z,8.58
2019-04-03T19:18:50.038Z,8.49
2019-04-03T19:20:50.050Z,8.32
2019-04-03T19:23:07.671Z,8.19
2019-04-03T19:24:49.766Z,8.06
2019-04-03T19:26:49.923Z,8.00
2019-04-03T19:28:49.990Z,7.93
2019-04-03T19:30:50.021Z,7.91
2019-04-03T19:32:50.227Z,7.85
2019-04-03T19:34:53.502Z,7.77
2019-04-03T19:36:49.697Z,7.77
2019-04-03T19:38:49.758Z,7.71
2019-04-03T19:40:49.907Z,7.69
2019-04-03T19:42:49.909Z,7.60
2019-04-03T19:44:50.153Z,7.55
2019-04-03T19:46:54.429Z,7.52
2019-04-03T19:48:50.452Z,7.48
2019-04-03T19:50:50.565Z,7.45
2019-04-03T19:52:50.644Z,7.43
2019-04-03T19:54:52.195Z,7.43
2019-04-03T19:56:50.439Z,7.45
2019-04-03T19:58:50.488Z,7.47
2019-04-03T20:00:50.434Z,7.43
2019-04-03T20:02:50.426Z,7.43
2019-04-03T20:04:49.786Z,7.44
2019-04-03T20:06:49.910Z,7.45
2019-04-03T20:08:49.947Z,7.50
2019-04-03T20:10:50.036Z,7.52
2019-04-03T20:12:50.278Z,7.54
2019-04-03T20:15:02.693Z,7.54
2019-04-03T20:16:50.640Z,7.60
2019-04-03T20:18:49.742Z,7.66
2019-04-03T20:20:49.818Z,7.68
2019-04-03T20:22:49.722Z,7.70
2019-04-03T20:25:00.872Z,7.61
2019-04-03T20:26:50.139Z,7.57
2019-04-03T20:28:50.249Z,7.48
2019-04-03T20:30:50.314Z,7.46
2019-04-03T20:32:50.328Z,7.43
2019-04-03T20:34:50.598Z,7.44
2019-04-03T20:36:55.228Z,7.44
2019-04-03T20:38:50.266Z,7.42
2019-04-03T20:40:50.309Z,7.35
2019-04-03T20:42:50.327Z,7.37
2019-04-03T20:44:50.401Z,7.36
2019-04-03T20:46:50.631Z,7.33
2019-04-03T20:48:50.630Z,7.34
2019-04-03T20:50:49.797Z,7.36
2019-04-03T20:52:49.891Z,7.38
2019-04-03T20:54:54.169Z,7.41
2019-04-03T20:57:03.010Z,7.36
2019-04-03T20:58:56.678Z,7.33
2019-04-03T21:01:07.328Z,7.27
2019-04-03T21:02:50.202Z,7.22
2019-04-03T21:04:50.608Z,7.17
2019-04-03T21:06:52.459Z,7.14
2019-04-03T21:08:50.470Z,7.03
2019-04-03T21:10:50.518Z,6.98
2019-04-03T21:12:50.546Z,6.93
2019-04-03T21:14:50.664Z,6.83
2019-04-03T21:16:49.942Z,6.78
2019-04-03T21:18:52.006Z,6.72
2019-04-03T21:20:50.059Z,6.68
2019-04-03T21:22:50.201Z,6.64
2019-04-03T21:24:50.216Z,6.61
2019-04-03T21:26:50.441Z,6.59
2019-04-03T21:28:50.448Z,6.56
2019-04-03T21:30:50.506Z,6.54
2019-04-03T21:32:50.530Z,6.51
2019-04-03T21:34:49.933Z,6.52
2019-04-03T21:36:50.226Z,6.51
2019-04-03T21:38:50.420Z,6.53
2019-04-03T21:40:50.428Z,6.52
2019-04-03T21:42:50.447Z,6.51
2019-04-03T21:44:50.456Z,6.51
2019-04-03T21:46:50.667Z,6.52
2019-04-03T21:48:49.710Z,6.56
2019-04-03T21:50:50.947Z,6.59
2019-04-03T21:52:54.578Z,6.63
2019-04-03T21:54:50.540Z,6.65
2019-04-03T21:56:50.661Z,6.64
2019-04-03T21:58:49.691Z,6.57
2019-04-03T22:00:49.829Z,6.52
2019-04-03T22:02:50.308Z,6.47
2019-04-03T22:04:49.746Z,6.44
2019-04-03T22:06:49.922Z,6.40
2019-04-03T22:08:52.011Z,6.40
2019-04-03T22:10:50.897Z,6.33
2019-04-03T22:12:49.985Z,6.33
2019-04-03T22:14:50.058Z,6.32
2019-04-03T22:16:51.570Z,6.32
2019-04-03T22:18:50.649Z,6.33
2019-04-03T22:20:50.692Z,6.32
2019-04-03T22:22:49.890Z,6.25
2019-04-03T22:24:49.871Z,6.17
2019-04-03T22:26:50.200Z,6.12
2019-04-03T22:28:50.209Z,6.11
2019-04-03T22:30:53.068Z,6.09
2019-04-03T22:32:50.134Z,6.07
2019-04-03T22:34:50.532Z,6.09
2019-04-03T22:36:50.685Z,6.08
2019-04-03T22:38:49.679Z,6.06
2019-04-03T22:40:49.747Z,6.05
2019-04-03T22:42:49.758Z,6.09
2019-04-03T22:44:49.785Z,6.11
2019-04-03T22:46:50.051Z,6.12
2019-04-03T22:48:50.150Z,6.12
2019-04-03T22:50:50.231Z,6.13
2019-04-03T22:52:50.329Z,6.16
2019-04-03T22:54:50.389Z,6.17
2019-04-03T22:56:50.635Z,6.20
2019-04-03T22:58:53.621Z,6.24
2019-04-03T23:00:50.698Z,6.27
2019-04-03T23:02:49.669Z,6.33
2019-04-03T23:04:50.225Z,6.33
2019-04-03T23:06:50.527Z,6.32
2019-04-03T23:08:54.604Z,6.31
2019-04-03T23:10:50.531Z,6.29
2019-04-03T23:12:50.523Z,6.24
2019-04-03T23:14:50.461Z,6.23
2019-04-03T23:16:49.791Z,6.23
2019-04-03T23:18:49.819Z,6.28
2019-04-03T23:20:53.517Z,6.29
2019-04-03T23:22:50.565Z,6.25
2019-04-03T23:24:50.624Z,6.25
2019-04-03T23:26:49.904Z,6.25
2019-04-03T23:28:49.965Z,6.25
2019-04-03T23:30:50.141Z,6.28
2019-04-03T23:32:50.225Z,6.32
2019-04-03T23:34:50.541Z,6.33
2019-04-03T23:36:49.783Z,6.34
2019-04-03T23:38:49.770Z,6.30
2019-04-03T23:40:49.908Z,6.26
2019-04-03T23:42:49.916Z,6.22
2019-04-03T23:44:50.007Z,6.16
2019-04-03T23:46:50.258Z,6.08
2019-04-03T23:48:50.342Z,6.06
2019-04-03T23:50:53.374Z,6.07
2019-04-03T23:52:50.373Z,6.08
2019-04-03T23:54:50.324Z,6.07
2019-04-03T23:56:50.570Z,6.05
2019-04-03T23:58:50.627Z,6.06
